createdAt,value
2018-06-04T00:00:14.009Z,8.07
2018-06-04T00:02:43.044Z,8.00
2018-06-04T00:05:12.089Z,7.63
2018-06-04T00:07:41.102Z,8.40
2018-06-04T00:10:10.117Z,8.20
2018-06-04T00:12:39.125Z,9.17
2018-06-04T00:15:08.124Z,7.77
2018-06-04T00:17:37.123Z,8.10
2018-06-04T00:20:06.128Z,6.87
2018-06-04T00:22:35.074Z,8.27
2018-06-04T00:25:04.133Z,7.63
2018-06-04T00:27:33.085Z,7.13
2018-06-04T00:30:02.064Z,7.67
2018-06-04T00:32:31.069Z,7.80
2018-06-04T00:35:00.024Z,8.87
2018-06-04T00:37:28.964Z,9.47
2018-06-04T00:39:57.972Z,9.37
2018-06-04T00:42:26.933Z,10.53
2018-06-04T00:44:55.868Z,9.63
2018-06-04T00:47:24.972Z,10.27
2018-06-04T00:49:53.965Z,10.90
2018-06-04T00:52:22.899Z,9.30
2018-06-04T00:54:51.835Z,9.70
2018-06-04T00:57:20.788Z,8.50
2018-06-04T00:59:49.717Z,9.70
2018-06-04T01:02:18.781Z,7.70
2018-06-04T01:04:48.645Z,8.60
2018-06-04T01:07:17.692Z,9.07
2018-06-04T01:09:46.648Z,8.40
2018-06-04T01:12:15.581Z,7.83
2018-06-04T01:14:44.528Z,7.03
2018-06-04T01:17:13.517Z,7.93
2018-06-04T01:19:42.584Z,7.63
2018-06-04T01:22:11.802Z,6.40
2018-06-04T01:24:40.856Z,6.93
2018-06-04T01:27:09.853Z,6.13
2018-06-04T01:29:38.787Z,6.37
2018-06-04T01:32:07.777Z,7.07
2018-06-04T01:34:36.772Z,5.80
2018-06-04T01:37:05.712Z,6.17
2018-06-04T01:39:34.644Z,6.33
2018-06-04T01:42:03.648Z,6.07
2018-06-04T01:44:32.633Z,8.20
2018-06-04T01:47:01.597Z,7.80
2018-06-04T01:49:30.536Z,7.50
2018-06-04T01:51:59.476Z,8.17
2018-06-04T01:54:28.484Z,6.33
2018-06-04T01:56:57.417Z,7.83
2018-06-04T01:59:26.523Z,6.90
2018-06-04T02:01:55.472Z,7.13
2018-06-04T02:04:24.465Z,8.80
2018-06-04T02:06:53.400Z,6.70
2018-06-04T02:09:22.405Z,9.07
2018-06-04T02:11:51.417Z,8.73
2018-06-04T02:14:20.404Z,10.53
2018-06-04T02:16:49.408Z,7.77
2018-06-04T02:19:18.392Z,6.67
2018-06-04T02:21:47.341Z,8.60
2018-06-04T02:24:16.352Z,8.00
2018-06-04T02:26:46.013Z,8.10
2018-06-04T02:29:15.037Z,8.00
2018-06-04T02:31:44.030Z,5.90
2018-06-04T02:34:13.085Z,6.27
2018-06-04T02:36:42.081Z,6.70
2018-06-04T02:39:11.124Z,7.93
2018-06-04T02:41:40.149Z,7.07
2018-06-04T02:44:09.147Z,7.47
2018-06-04T02:46:38.217Z,7.07
2018-06-04T02:49:07.165Z,6.47
2018-06-04T02:51:36.201Z,6.50
2018-06-04T02:54:05.261Z,7.67
2018-06-04T02:56:34.200Z,7.50
2018-06-04T02:59:03.144Z,6.67
2018-06-04T03:01:32.108Z,7.83
2018-06-04T03:04:01.100Z,6.87
2018-06-04T03:06:30.036Z,6.70
2018-06-04T03:08:59.036Z,5.97
2018-06-04T03:11:27.964Z,6.47
2018-06-04T03:13:57.050Z,6.37
2018-06-04T03:16:26.170Z,7.43
2018-06-04T03:18:55.169Z,7.73
2018-06-04T03:21:24.172Z,7.67
2018-06-04T03:23:53.161Z,7.30
2018-06-04T03:26:22.121Z,7.30
2018-06-04T03:28:51.160Z,7.80
2018-06-04T03:31:20.101Z,7.10
2018-06-04T03:33:49.073Z,7.37
2018-06-04T03:36:18.008Z,7.13
2018-06-04T03:38:47.085Z,5.80
2018-06-04T03:41:16.037Z,5.70
2018-06-04T03:43:45.030Z,6.27
2018-06-04T03:46:13.992Z,6.70
2018-06-04T03:48:42.960Z,6.97
2018-06-04T03:51:11.966Z,6.83
2018-06-04T03:53:41.040Z,6.43
2018-06-04T03:56:10.102Z,7.47
2018-06-04T03:58:39.125Z,7.40
2018-06-04T04:01:08.333Z,6.97
2018-06-04T04:03:37.381Z,5.30
2018-06-04T04:06:06.450Z,6.00
2018-06-04T04:08:35.401Z,6.67
2018-06-04T04:11:04.389Z,6.83
2018-06-04T04:13:33.389Z,6.40
2018-06-04T04:16:02.365Z,7.50
2018-06-04T04:18:31.296Z,7.00
2018-06-04T04:21:00.236Z,6.90
2018-06-04T04:23:29.167Z,7.00
2018-06-04T04:25:58.167Z,6.00
2018-06-04T04:28:27.161Z,6.60
2018-06-04T04:30:56.213Z,5.93
2018-06-04T04:33:25.229Z,6.10
2018-06-04T04:35:54.318Z,6.90
2018-06-04T04:38:23.520Z,5.60
2018-06-04T04:40:52.568Z,5.47
2018-06-04T04:43:21.572Z,6.23
2018-06-04T04:45:50.512Z,5.37
2018-06-04T04:48:19.581Z,5.50
2018-06-04T04:50:48.557Z,5.97
2018-06-04T04:53:17.492Z,7.27
2018-06-04T04:55:46.545Z,6.07
2018-06-04T04:58:15.502Z,5.60
2018-06-04T05:00:44.444Z,6.23
2018-06-04T05:03:13.488Z,5.10
2018-06-04T05:05:42.484Z,5.30
2018-06-04T05:08:11.517Z,5.33
2018-06-04T05:10:40.509Z,4.97
2018-06-04T05:13:09.448Z,5.53
2018-06-04T05:15:38.485Z,5.40
2018-06-04T05:18:07.504Z,4.80
2018-06-04T05:20:36.513Z,5.50
2018-06-04T05:23:05.512Z,5.50
2018-06-04T05:25:34.557Z,6.03
2018-06-04T05:28:03.659Z,5.60
2018-06-04T05:30:32.656Z,5.63
2018-06-04T05:33:01.600Z,5.10
2018-06-04T05:35:30.601Z,4.63
2018-06-04T05:37:59.610Z,4.63
2018-06-04T05:40:28.665Z,4.10
2018-06-04T05:42:57.583Z,4.83
2018-06-04T05:45:26.528Z,3.50
2018-06-04T05:47:55.566Z,3.83
2018-06-04T05:50:24.636Z,4.90
2018-06-04T05:52:53.751Z,4.30
2018-06-04T05:55:22.760Z,4.13
2018-06-04T05:57:51.776Z,4.30
2018-06-04T06:00:20.786Z,4.10
2018-06-04T06:02:49.716Z,4.07
2018-06-04T06:05:18.673Z,4.03
2018-06-04T06:07:47.646Z,4.60
2018-06-04T06:10:16.660Z,5.63
2018-06-04T06:12:45.646Z,4.70
2018-06-04T06:15:14.608Z,4.50
2018-06-04T06:17:43.676Z,3.80
2018-06-04T06:20:12.608Z,4.17
2018-06-04T06:22:41.608Z,3.83
2018-06-04T06:25:10.614Z,4.20
2018-06-04T06:27:39.621Z,4.80
2018-06-04T06:30:08.666Z,4.00
2018-06-04T06:32:37.858Z,3.70
2018-06-04T06:35:06.984Z,4.27
2018-06-04T06:37:36.013Z,4.37
2018-06-04T06:40:05.087Z,3.67
2018-06-04T06:42:34.073Z,3.60
2018-06-04T06:45:03.018Z,4.10
2018-06-04T06:47:32.017Z,3.93
2018-06-04T06:50:00.966Z,4.53
2018-06-04T06:52:29.925Z,3.93
2018-06-04T06:54:58.924Z,3.90
2018-06-04T06:57:27.950Z,4.30
2018-06-04T06:59:56.936Z,4.10
2018-06-04T07:02:25.990Z,4.33
2018-06-04T07:04:54.931Z,4.30
2018-06-04T07:07:23.873Z,4.40
2018-06-04T07:09:52.812Z,4.77
2018-06-04T07:12:21.821Z,4.70
2018-06-04T07:14:50.868Z,3.70
2018-06-04T07:17:19.837Z,5.00
2018-06-04T07:19:48.764Z,4.90
2018-06-04T07:22:17.812Z,4.60
2018-06-04T07:24:46.805Z,5.37
2018-06-04T07:27:15.868Z,4.40
2018-06-04T07:29:44.828Z,5.00
2018-06-04T07:32:13.822Z,5.63
2018-06-04T07:34:42.816Z,4.27
2018-06-04T07:37:11.765Z,4.80
2018-06-04T07:39:40.709Z,4.70
2018-06-04T07:42:09.694Z,4.13
2018-06-04T07:44:38.749Z,5.20
2018-06-04T07:47:07.696Z,5.10
2018-06-04T07:49:36.644Z,5.20
2018-06-04T07:52:05.608Z,4.60
2018-06-04T07:54:34.677Z,4.63
2018-06-04T07:57:03.628Z,4.80
2018-06-04T07:59:32.548Z,5.77
2018-06-04T08:02:01.541Z,4.20
2018-06-04T08:04:30.545Z,4.57
2018-06-04T08:06:59.753Z,4.43
2018-06-04T08:09:28.757Z,4.40
2018-06-04T08:11:57.777Z,4.77
2018-06-04T08:14:26.813Z,4.53
2018-06-04T08:16:55.809Z,5.37
2018-06-04T08:19:24.800Z,3.90
2018-06-04T08:21:53.786Z,4.13
2018-06-04T08:24:22.785Z,4.30
2018-06-04T08:26:51.728Z,3.63
2018-06-04T08:29:20.764Z,3.30
2018-06-04T08:31:49.714Z,3.63
2018-06-04T08:34:18.711Z,3.73
2018-06-04T08:36:47.723Z,3.93
2018-06-04T08:39:16.737Z,3.80
2018-06-04T08:41:45.760Z,3.40
2018-06-04T08:44:14.779Z,3.27
2018-06-04T08:46:43.949Z,3.40
2018-06-04T08:49:12.929Z,3.30
2018-06-04T08:51:41.921Z,4.23
2018-06-04T08:54:11.188Z,3.60
2018-06-04T08:56:40.128Z,4.17
2018-06-04T08:59:09.057Z,3.37
2018-06-04T09:01:38.058Z,3.93
2018-06-04T09:04:07.101Z,3.07
2018-06-04T09:06:36.149Z,3.57
2018-06-04T09:09:06.413Z,3.47
2018-06-04T09:11:35.468Z,3.67
2018-06-04T09:14:04.498Z,3.50
2018-06-04T09:16:33.559Z,3.60
2018-06-04T09:19:02.641Z,3.50
2018-06-04T09:21:31.641Z,3.60
2018-06-04T09:24:00.592Z,4.27
2018-06-04T09:26:29.712Z,5.00
2018-06-04T09:28:58.717Z,3.20
2018-06-04T09:31:27.640Z,2.90
2018-06-04T09:33:56.704Z,3.50
2018-06-04T09:36:25.632Z,3.10
2018-06-04T09:38:54.655Z,4.60
2018-06-04T09:41:23.641Z,2.67
2018-06-04T09:43:52.578Z,2.37
2018-06-04T09:46:21.517Z,2.40
2018-06-04T09:48:50.508Z,3.43
2018-06-04T09:51:19.447Z,3.50
2018-06-04T09:53:48.396Z,2.77
2018-06-04T09:56:18.002Z,3.10
2018-06-04T09:58:47.018Z,3.03
2018-06-04T10:01:15.988Z,3.10
2018-06-04T10:03:44.956Z,3.30
2018-06-04T10:06:13.907Z,2.27
2018-06-04T10:08:42.885Z,2.70
2018-06-04T10:11:12.004Z,2.73
2018-06-04T10:13:40.934Z,2.70
2018-06-04T10:16:09.840Z,2.60
2018-06-04T10:18:38.770Z,3.60
2018-06-04T10:21:07.765Z,3.20
2018-06-04T10:23:36.708Z,2.50
2018-06-04T10:26:05.624Z,2.50
2018-06-04T10:28:34.571Z,3.23
2018-06-04T10:31:03.478Z,2.43
2018-06-04T10:33:32.433Z,2.80
2018-06-04T10:36:01.404Z,2.50
2018-06-04T10:38:30.360Z,2.83
2018-06-04T10:40:59.338Z,2.70
2018-06-04T10:43:28.341Z,4.37
2018-06-04T10:45:57.308Z,2.83
2018-06-04T10:48:26.292Z,3.63
2018-06-04T10:50:55.270Z,4.00
2018-06-04T10:53:24.217Z,3.57
2018-06-04T10:55:53.220Z,3.53
2018-06-04T10:58:22.245Z,3.00
2018-06-04T11:00:51.468Z,3.83
2018-06-04T11:03:20.444Z,4.00
2018-06-04T11:05:49.412Z,3.67
2018-06-04T11:08:18.400Z,3.20
2018-06-04T11:10:47.368Z,3.30
2018-06-04T11:13:16.331Z,3.70
2018-06-04T11:15:45.312Z,3.03
2018-06-04T11:18:14.310Z,3.40
2018-06-04T11:20:43.297Z,2.70
2018-06-04T11:23:12.267Z,3.70
2018-06-04T11:25:41.257Z,3.07
2018-06-04T11:28:10.225Z,2.90
2018-06-04T11:30:39.176Z,2.47
2018-06-04T11:33:08.139Z,2.40
2018-06-04T11:35:37.147Z,2.45
2018-06-04T11:38:06.116Z,2.50
2018-06-04T11:40:35.060Z,2.50
2018-06-04T11:43:04.139Z,2.67
2018-06-04T11:45:33.089Z,2.67
2018-06-04T11:48:02.090Z,3.40
2018-06-04T11:50:31.073Z,2.60
2018-06-04T11:53:00.056Z,2.27
2018-06-04T11:55:29.021Z,2.40
2018-06-04T11:57:57.987Z,2.55
2018-06-04T12:00:26.964Z,1.90
2018-06-04T12:02:55.900Z,2.37
2018-06-04T12:05:24.816Z,2.33
2018-06-04T12:07:53.717Z,2.10
2018-06-04T12:10:22.653Z,2.33
2018-06-04T12:12:51.615Z,2.42
2018-06-04T12:15:20.583Z,2.37
2018-06-04T12:17:49.539Z,2.20
2018-06-04T12:20:18.451Z,2.25
2018-06-04T12:22:47.416Z,1.70
2018-06-04T12:25:16.336Z,2.25
2018-06-04T12:27:45.272Z,1.90
2018-06-04T12:30:14.186Z,2.15
2018-06-04T12:32:43.107Z,1.65
2018-06-04T12:35:12.028Z,2.25
2018-06-04T12:37:41.058Z,1.72
2018-06-04T12:40:10.085Z,1.75
2018-06-04T12:42:39.012Z,1.50
2018-06-04T12:45:08.000Z,1.92
2018-06-04T12:47:36.974Z,1.90
2018-06-04T12:50:05.904Z,1.60
2018-06-04T12:52:34.866Z,1.57
2018-06-04T12:55:03.921Z,1.72
2018-06-04T12:57:32.909Z,1.60
2018-06-04T13:00:01.981Z,2.00
2018-06-04T13:02:30.905Z,1.98
2018-06-04T13:04:59.880Z,2.20
2018-06-04T13:07:28.791Z,1.92
2018-06-04T13:09:57.798Z,2.50
2018-06-04T13:12:26.741Z,2.30
2018-06-04T13:14:55.678Z,2.08
2018-06-04T13:17:24.697Z,1.98
2018-06-04T13:19:53.773Z,2.60
2018-06-04T13:22:22.796Z,1.82
2018-06-04T13:24:51.736Z,1.82
2018-06-04T13:27:20.737Z,2.12
2018-06-04T13:29:49.747Z,1.98
2018-06-04T13:32:18.704Z,2.33
2018-06-04T13:34:47.705Z,2.12
2018-06-04T13:37:16.976Z,4.08
2018-06-04T13:39:45.995Z,1.98
2018-06-04T13:42:14.932Z,1.82
2018-06-04T13:44:43.937Z,2.42
2018-06-04T13:47:12.928Z,2.22
2018-06-04T13:49:41.912Z,2.20
2018-06-04T13:52:10.928Z,2.67
2018-06-04T13:54:39.934Z,2.43
2018-06-04T13:57:08.888Z,2.40
2018-06-04T13:59:37.837Z,2.80
2018-06-04T14:02:07.014Z,2.60
2018-06-04T14:04:35.976Z,2.43
2018-06-04T14:07:05.041Z,2.87
2018-06-04T14:09:34.121Z,2.53
2018-06-04T14:12:03.072Z,2.80
2018-06-04T14:14:32.062Z,3.07
2018-06-04T14:17:01.031Z,2.60
2018-06-04T14:19:30.104Z,2.33
2018-06-04T14:21:59.052Z,4.23
2018-06-04T14:24:28.033Z,2.70
2018-06-04T14:26:57.082Z,2.33
2018-06-04T14:29:26.091Z,2.30
2018-06-04T14:31:55.109Z,2.83
2018-06-04T14:34:24.066Z,3.43
2018-06-04T14:36:53.116Z,3.00
2018-06-04T14:39:22.104Z,2.93
2018-06-04T14:41:51.063Z,5.23
2018-06-04T14:44:20.010Z,6.33
2018-06-04T14:46:48.960Z,5.33
2018-06-04T14:49:18.004Z,5.30
2018-06-04T14:51:46.944Z,5.40
2018-06-04T14:54:15.984Z,5.37
2018-06-04T14:56:44.986Z,6.37
2018-06-04T14:59:13.939Z,6.13
2018-06-04T15:01:43.016Z,6.00
2018-06-04T15:04:11.964Z,6.10
2018-06-04T15:06:41.027Z,6.60
2018-06-04T15:09:10.056Z,5.30
2018-06-04T15:11:39.061Z,5.30
2018-06-04T15:14:09.054Z,4.70
2018-06-04T15:16:38.165Z,6.00
2018-06-04T15:19:07.187Z,5.83
2018-06-04T15:21:36.152Z,5.17
2018-06-04T15:24:05.205Z,5.23
2018-06-04T15:26:34.254Z,5.20
2018-06-04T15:29:03.417Z,6.30
2018-06-04T15:31:32.396Z,4.77
2018-06-04T15:34:01.336Z,4.60
2018-06-04T15:36:30.340Z,4.90
2018-06-04T15:38:59.264Z,4.80
2018-06-04T15:41:28.272Z,3.80
2018-06-04T15:43:57.326Z,3.80
2018-06-04T15:46:26.409Z,4.37
2018-06-04T15:48:55.372Z,3.30
2018-06-04T15:51:24.496Z,3.97
2018-06-04T15:53:53.460Z,3.70
2018-06-04T15:56:22.465Z,3.87
2018-06-04T15:58:51.415Z,3.73
2018-06-04T16:01:20.427Z,3.20
2018-06-04T16:03:49.437Z,3.80
2018-06-04T16:06:18.471Z,2.70
2018-06-04T16:08:47.481Z,3.00
2018-06-04T16:11:16.533Z,3.60
2018-06-04T16:13:45.571Z,3.50
2018-06-04T16:16:14.644Z,4.00
2018-06-04T16:18:43.677Z,4.90
2018-06-04T16:21:12.640Z,4.73
2018-06-04T16:23:41.763Z,4.30
2018-06-04T16:26:10.788Z,4.60
2018-06-04T16:28:39.764Z,5.40
2018-06-04T16:31:08.944Z,3.90
2018-06-04T16:33:38.340Z,4.00
2018-06-04T16:36:07.356Z,3.50
2018-06-04T16:38:36.365Z,3.80
2018-06-04T16:41:05.444Z,4.03
2018-06-04T16:43:34.421Z,4.13
2018-06-04T16:46:03.372Z,3.40
2018-06-04T16:48:32.493Z,4.07
2018-06-04T16:51:01.440Z,3.70
2018-06-04T16:53:30.404Z,3.90
2018-06-04T16:55:59.432Z,3.10
2018-06-04T16:58:28.610Z,3.60
2018-06-04T17:00:57.632Z,2.80
2018-06-04T17:03:26.584Z,3.50
2018-06-04T17:05:55.544Z,3.50
2018-06-04T17:08:24.498Z,3.90
2018-06-04T17:10:53.652Z,3.00
2018-06-04T17:13:22.649Z,3.50
2018-06-04T17:15:51.737Z,2.67
2018-06-04T17:18:20.901Z,2.90
2018-06-04T17:20:49.871Z,3.90
2018-06-04T17:23:18.884Z,3.67
2018-06-04T17:25:47.905Z,2.50
2018-06-04T17:28:17.275Z,3.70
2018-06-04T17:30:46.244Z,3.63
2018-06-04T17:33:15.255Z,3.50
2018-06-04T17:35:44.216Z,3.80
2018-06-04T17:38:13.216Z,3.90
2018-06-04T17:40:42.176Z,4.53
2018-06-04T17:43:11.132Z,5.30
2018-06-04T17:45:40.094Z,4.10
2018-06-04T17:48:09.101Z,4.03
2018-06-04T17:50:38.112Z,4.87
2018-06-04T17:53:07.174Z,4.30
2018-06-04T17:55:36.151Z,4.80
2018-06-04T17:58:05.259Z,3.53
2018-06-04T18:00:34.209Z,4.57
2018-06-04T18:03:03.301Z,4.80
2018-06-04T18:05:32.297Z,3.93
2018-06-04T18:08:01.442Z,3.90
2018-06-04T18:10:30.414Z,4.50
2018-06-04T18:12:59.472Z,3.43
2018-06-04T18:15:28.509Z,3.93
2018-06-04T18:17:57.483Z,3.57
2018-06-04T18:20:26.505Z,3.90
2018-06-04T18:22:55.664Z,3.80
2018-06-04T18:25:24.746Z,4.57
2018-06-04T18:27:53.778Z,3.47
2018-06-04T18:30:23.500Z,3.60
2018-06-04T18:32:52.470Z,3.87
2018-06-04T18:35:21.404Z,3.83
2018-06-04T18:37:50.366Z,4.20
2018-06-04T18:40:19.372Z,4.20
2018-06-04T18:42:48.375Z,3.40
2018-06-04T18:45:17.321Z,5.07
2018-06-04T18:47:46.385Z,4.17
2018-06-04T18:50:15.397Z,4.37
2018-06-04T18:52:44.416Z,4.80
2018-06-04T18:55:13.373Z,4.50
2018-06-04T18:57:42.364Z,4.03
2018-06-04T19:00:11.424Z,4.10
2018-06-04T19:02:40.429Z,4.97
2018-06-04T19:05:09.380Z,3.90
2018-06-04T19:07:38.328Z,4.23
2018-06-04T19:10:07.287Z,4.27
2018-06-04T19:12:36.254Z,8.17
2018-06-04T19:15:05.909Z,5.00
2018-06-04T19:17:34.922Z,5.03
2018-06-04T19:20:03.872Z,5.20
2018-06-04T19:22:32.865Z,5.00
2018-06-04T19:25:01.886Z,4.93
2018-06-04T19:27:30.832Z,5.07
2018-06-04T19:29:59.847Z,5.23
2018-06-04T19:32:28.851Z,4.87
2018-06-04T19:34:57.917Z,5.60
2018-06-04T19:37:26.956Z,5.87
2018-06-04T19:39:55.959Z,4.70
2018-06-04T19:42:24.970Z,4.87
2018-06-04T19:44:53.965Z,4.70
2018-06-04T19:47:22.964Z,5.20
2018-06-04T19:49:51.961Z,5.67
2018-06-04T19:52:20.968Z,4.40
2018-06-04T19:54:49.919Z,4.70
2018-06-04T19:57:18.899Z,4.87
2018-06-04T19:59:47.861Z,4.40
2018-06-04T20:02:16.869Z,5.33
2018-06-04T20:04:45.875Z,4.50
2018-06-04T20:07:14.869Z,4.50
2018-06-04T20:09:43.996Z,5.60
2018-06-04T20:12:13.033Z,4.67
2018-06-04T20:14:41.995Z,5.20
2018-06-04T20:17:10.958Z,4.23
2018-06-04T20:19:39.956Z,5.30
2018-06-04T20:22:08.899Z,4.40
2018-06-04T20:24:37.831Z,4.33
2018-06-04T20:27:06.849Z,4.23
2018-06-04T20:29:35.858Z,4.47
2018-06-04T20:32:04.827Z,4.57
2018-06-04T20:34:33.955Z,5.10
2018-06-04T20:37:02.945Z,5.57
2018-06-04T20:39:31.986Z,4.23
2018-06-04T20:42:00.973Z,5.00
2018-06-04T20:44:29.971Z,4.03
2018-06-04T20:46:58.965Z,3.93
2018-06-04T20:49:27.897Z,4.50
2018-06-04T20:51:56.970Z,3.97
2018-06-04T20:54:25.977Z,4.73
2018-06-04T20:56:54.916Z,4.40
2018-06-04T20:59:23.851Z,3.80
2018-06-04T21:01:52.896Z,4.30
2018-06-04T21:04:21.877Z,5.10
2018-06-04T21:06:50.956Z,4.80
2018-06-04T21:09:19.908Z,5.00
2018-06-04T21:11:48.912Z,4.73
2018-06-04T21:14:17.925Z,5.00
2018-06-04T21:16:46.908Z,5.10
2018-06-04T21:19:15.908Z,4.33
2018-06-04T21:21:44.864Z,4.80
2018-06-04T21:24:13.860Z,5.77
2018-06-04T21:26:42.832Z,5.17
2018-06-04T21:29:11.771Z,4.50
2018-06-04T21:31:40.825Z,4.60
2018-06-04T21:34:09.836Z,5.10
2018-06-04T21:36:38.946Z,5.37
2018-06-04T21:39:08.045Z,5.27
2018-06-04T21:41:37.105Z,5.70
2018-06-04T21:44:06.116Z,4.97
2018-06-04T21:46:35.084Z,5.37
2018-06-04T21:49:04.119Z,5.73
2018-06-04T21:51:33.072Z,4.70
2018-06-04T21:54:02.055Z,4.60
2018-06-04T21:56:31.005Z,4.30
2018-06-04T21:59:00.003Z,4.63
2018-06-04T22:01:29.004Z,5.20
2018-06-04T22:03:58.120Z,4.70
2018-06-04T22:06:27.071Z,4.80
2018-06-04T22:08:56.129Z,4.93
2018-06-04T22:11:25.292Z,4.43
2018-06-04T22:13:54.293Z,4.40
2018-06-04T22:16:23.225Z,4.97
2018-06-04T22:18:52.292Z,5.17
2018-06-04T22:21:21.276Z,4.50
2018-06-04T22:23:50.277Z,4.03
2018-06-04T22:26:19.276Z,3.67
2018-06-04T22:28:48.365Z,4.13
2018-06-04T22:31:17.369Z,4.73
2018-06-04T22:33:46.331Z,4.87
2018-06-04T22:36:15.345Z,4.63
2018-06-04T22:38:44.296Z,4.90
2018-06-04T22:41:13.264Z,5.07
2018-06-04T22:43:42.191Z,5.20
2018-06-04T22:46:11.228Z,4.13
2018-06-04T22:48:40.345Z,4.20
2018-06-04T22:51:09.275Z,4.70
2018-06-04T22:53:38.215Z,4.20
2018-06-04T22:56:07.196Z,4.57
2018-06-04T22:58:36.208Z,5.10
2018-06-04T23:01:05.157Z,4.97
2018-06-04T23:03:34.253Z,3.67
2018-06-04T23:06:03.256Z,4.97
2018-06-04T23:08:32.249Z,4.40
2018-06-04T23:11:01.196Z,4.60
2018-06-04T23:13:30.133Z,5.27
2018-06-04T23:15:59.080Z,4.50
2018-06-04T23:18:28.133Z,4.77
2018-06-04T23:20:57.128Z,5.47
2018-06-04T23:23:26.113Z,4.90
2018-06-04T23:25:55.101Z,4.53
2018-06-04T23:28:24.144Z,5.73
2018-06-04T23:30:53.065Z,4.80
2018-06-04T23:33:22.117Z,5.77
2018-06-04T23:35:51.092Z,5.43
2018-06-04T23:38:20.084Z,5.40
2018-06-04T23:40:49.032Z,4.97
2018-06-04T23:43:17.968Z,5.40
2018-06-04T23:45:46.984Z,5.37
2018-06-04T23:48:15.980Z,5.53
2018-06-04T23:50:45.128Z,5.10
2018-06-04T23:53:14.056Z,3.67
2018-06-04T23:55:43.113Z,5.40
2018-06-04T23:58:12.137Z,4.83
